Ghanzi, Botswana
Current Conditions -  °F | °C
As of 10:00 AM on Friday 19 Dec 2014 (Local Time) from FYGF Reporting Station
Few Clouds Few Clouds  
Wind Chill: 28°   Ceiling: Unl
Heat Index: 28°   Visibility: 6mi
Dew Point:   Wind: 12mph
Humidity: 25%   Direction: 160°SSE
Pressure: 30.15"   Gusts: NA
Location:  21.7°S, 21.64°E
Report Text: FYGF 190800Z 16010KT 9999 FEW100 28/06 Q1021
Loading
Personal Weather Stations






























Interactive Weather Map New forecast layout! Learn more

10-Day Weather Forecast

Advertisements
Track Severe Weather on mobile